Time;durP1;ratioP1;P1;durP2;ratioP2;P2;SDS_P1;SDS_P2;PMS_P1;PMS_P2;Temp;Humidity;BMP_temperature;BMP_pressure;BME280_temperature;BME280_humidity;BME280_pressure;Samples;Min_cycle;Max_cycle;Signal;HPM_P1;HPM_P2
2024/01/26 00:00:05;;;;;;;39.73;23.30;;;;;;;;;;5108846;28;20051;-75
2024/01/26 00:02:30;;;;;;;37.90;23.02;;;;;;;;;;5102854;28;20517;-75
2024/01/26 00:04:55;;;;;;;38.13;22.47;;;;;;;;;;5107469;28;20081;-75
2024/01/26 00:07:20;;;;;;;42.07;21.93;;;;;;;;;;5106334;28;20353;-74
2024/01/26 00:09:45;;;;;;;33.27;20.90;;;;;;;;;;5106155;28;20636;-74
2024/01/26 00:12:11;;;;;;;35.15;21.08;;;;;;;;;;5106051;28;20305;-74
2024/01/26 00:14:36;;;;;;;32.27;20.73;;;;;;;;;;5105404;28;20366;-74
2024/01/26 00:17:01;;;;;;;32.55;20.95;;;;;;;;;;5105165;28;20771;-75
2024/01/26 00:19:26;;;;;;;32.35;20.02;;;;;;;;;;5105951;28;20027;-75
2024/01/26 00:21:51;;;;;;;33.60;20.10;;;;;;;;;;5105260;28;20020;-75
2024/01/26 00:24:17;;;;;;;34.30;20.47;;;;;;;;;;5104977;28;20394;-75
2024/01/26 00:26:42;;;;;;;32.10;20.30;;;;;;;;;;5109750;28;20278;-74
2024/01/26 00:29:07;;;;;;;32.20;19.87;;;;;;;;;;5108104;28;20280;-75
2024/01/26 00:31:32;;;;;;;31.73;20.00;;;;;;;;;;5103660;28;20381;-74
2024/01/26 00:33:57;;;;;;;31.83;19.13;;;;;;;;;;5104148;28;20305;-75
2024/01/26 00:36:22;;;;;;;31.87;20.10;;;;;;;;;;5109105;28;20261;-75
2024/01/26 00:38:48;;;;;;;35.42;20.08;;;;;;;;;;5104320;28;20039;-75
2024/01/26 00:41:13;;;;;;;34.90;20.30;;;;;;;;;;5109577;28;20450;-75
2024/01/26 00:43:38;;;;;;;34.65;19.77;;;;;;;;;;5106973;28;20261;-75
2024/01/26 00:46:03;;;;;;;29.23;19.47;;;;;;;;;;5102576;28;20124;-74
2024/01/26 00:48:29;;;;;;;30.50;18.98;;;;;;;;;;5106872;28;20269;-74
2024/01/26 00:50:54;;;;;;;29.83;19.73;;;;;;;;;;5104692;28;20091;-74
2024/01/26 00:53:19;;;;;;;29.30;18.52;;;;;;;;;;5110148;28;20024;-75
2024/01/26 00:55:45;;;;;;;28.88;17.67;;;;;;;;;;5109959;28;20053;-75
2024/01/26 00:58:10;;;;;;;27.63;18.20;;;;;;;;;;5103472;28;20031;-75
2024/01/26 01:00:36;;;;;;;27.83;17.98;;;;;;;;;;5111922;28;20265;-75
2024/01/26 01:03:01;;;;;;;25.35;16.65;;;;;;;;;;5101583;28;20139;-75
2024/01/26 01:05:26;;;;;;;25.70;16.13;;;;;;;;;;5110802;28;20019;-75
2024/01/26 01:07:51;;;;;;;27.80;16.07;;;;;;;;;;5106168;28;20316;-75
2024/01/26 01:10:16;;;;;;;26.17;16.13;;;;;;;;;;5109126;28;20331;-74
2024/01/26 01:12:42;;;;;;;23.63;15.37;;;;;;;;;;5100620;28;20866;-75
2024/01/26 01:15:11;;;;;;;23.38;14.82;;;;;;;;;;5106984;28;20352;-74
2024/01/26 01:17:36;;;;;;;23.83;14.98;;;;;;;;;;5104521;28;20020;-75
2024/01/26 01:20:04;;;;;;;21.27;13.57;;;;;;;;;;5105860;28;20103;-75
2024/01/26 01:22:29;;;;;;;20.52;12.40;;;;;;;;;;5104786;28;20701;-74
2024/01/26 01:24:55;;;;;;;18.88;12.63;;;;;;;;;;5104231;28;20021;-75
2024/01/26 01:27:20;;;;;;;17.17;12.40;;;;;;;;;;5104004;28;20019;-75
2024/01/26 01:29:45;;;;;;;18.77;12.03;;;;;;;;;;5103909;28;20422;-75
2024/01/26 01:32:10;;;;;;;17.27;11.13;;;;;;;;;;5104318;28;20120;-74
2024/01/26 01:34:36;;;;;;;18.30;11.63;;;;;;;;;;5106321;28;20076;-75
2024/01/26 01:37:02;;;;;;;14.40;10.38;;;;;;;;;;5111255;28;20270;-74
2024/01/26 01:39:27;;;;;;;14.68;10.65;;;;;;;;;;5108228;28;20019;-74
2024/01/26 01:41:52;;;;;;;14.47;10.67;;;;;;;;;;5107642;28;20478;-74
2024/01/26 01:44:17;;;;;;;15.57;10.52;;;;;;;;;;5105720;28;20012;-74
2024/01/26 01:46:42;;;;;;;15.40;10.50;;;;;;;;;;5104021;28;20455;-74
2024/01/26 01:49:08;;;;;;;13.53;10.03;;;;;;;;;;5104763;28;20080;-75
2024/01/26 01:51:35;;;;;;;13.90;10.23;;;;;;;;;;5109611;28;20339;-75
2024/01/26 01:54:01;;;;;;;14.57;10.43;;;;;;;;;;5103404;28;20024;-74
2024/01/26 01:56:27;;;;;;;17.38;10.35;;;;;;;;;;5103534;28;20084;-74
2024/01/26 01:58:53;;;;;;;12.07;9.65;;;;;;;;;;5104043;28;20062;-75
2024/01/26 02:01:18;;;;;;;16.08;10.00;;;;;;;;;;5104091;28;20352;-74
2024/01/26 02:03:44;;;;;;;14.82;10.10;;;;;;;;;;5103565;28;20043;-74
2024/01/26 02:06:09;;;;;;;14.43;9.63;;;;;;;;;;5108823;28;20024;-74
2024/01/26 02:08:34;;;;;;;14.50;9.17;;;;;;;;;;5104672;28;20065;-74
2024/01/26 02:10:59;;;;;;;13.37;8.40;;;;;;;;;;5109639;28;20099;-74
2024/01/26 02:13:24;;;;;;;16.87;8.73;;;;;;;;;;5102952;28;20032;-74
2024/01/26 02:15:49;;;;;;;12.87;8.20;;;;;;;;;;5107993;28;20319;-74
2024/01/26 02:18:15;;;;;;;11.20;8.13;;;;;;;;;;5102660;28;20073;-75
2024/01/26 02:20:40;;;;;;;11.70;8.35;;;;;;;;;;5110922;28;20072;-75
2024/01/26 02:23:05;;;;;;;10.50;7.70;;;;;;;;;;5108912;28;20062;-74
2024/01/26 02:25:31;;;;;;;12.40;7.70;;;;;;;;;;5101427;28;20272;-74
2024/01/26 02:27:56;;;;;;;13.57;7.57;;;;;;;;;;5108934;28;20463;-75
2024/01/26 02:30:21;;;;;;;9.00;7.33;;;;;;;;;;5102774;28;20107;-75
2024/01/26 02:32:46;;;;;;;14.37;7.60;;;;;;;;;;5101605;28;20476;-74
2024/01/26 02:35:11;;;;;;;9.60;6.97;;;;;;;;;;5110575;28;20273;-75
2024/01/26 02:37:37;;;;;;;10.53;6.70;;;;;;;;;;5108316;28;20289;-75
2024/01/26 02:40:02;;;;;;;9.98;6.70;;;;;;;;;;5110039;28;20352;-74
2024/01/26 02:42:27;;;;;;;8.63;6.35;;;;;;;;;;5106362;28;20032;-75
2024/01/26 02:44:52;;;;;;;9.23;6.20;;;;;;;;;;5109819;28;20012;-74
2024/01/26 02:47:18;;;;;;;9.97;6.20;;;;;;;;;;5105822;28;20425;-74
2024/01/26 02:49:43;;;;;;;9.45;6.47;;;;;;;;;;5110316;28;20269;-74
2024/01/26 02:52:08;;;;;;;8.98;6.28;;;;;;;;;;5102780;28;20028;-75
2024/01/26 02:54:34;;;;;;;11.53;6.17;;;;;;;;;;5103765;28;20019;-75
2024/01/26 02:56:59;;;;;;;11.33;6.90;;;;;;;;;;5103170;28;20069;-74
2024/01/26 02:59:24;;;;;;;8.37;6.13;;;;;;;;;;5108893;28;20422;-74
2024/01/26 03:01:49;;;;;;;10.63;6.67;;;;;;;;;;5109527;28;20413;-75
2024/01/26 03:04:14;;;;;;;8.00;6.20;;;;;;;;;;5108971;28;20043;-74
2024/01/26 03:06:40;;;;;;;9.40;6.47;;;;;;;;;;5111030;28;20284;-74
2024/01/26 03:09:07;;;;;;;8.83;6.37;;;;;;;;;;5112785;28;20026;-74
2024/01/26 03:11:36;;;;;;;11.73;6.43;;;;;;;;;;5114291;28;20286;-75
2024/01/26 03:14:01;;;;;;;9.63;7.00;;;;;;;;;;5104088;28;20074;-74
2024/01/26 03:16:26;;;;;;;8.40;6.40;;;;;;;;;;5105338;28;20011;-74
2024/01/26 03:18:51;;;;;;;8.63;6.50;;;;;;;;;;5112991;28;20317;-74
2024/01/26 03:21:17;;;;;;;8.93;6.73;;;;;;;;;;5114844;28;20058;-74
2024/01/26 03:23:42;;;;;;;7.93;6.50;;;;;;;;;;5110283;28;20028;-74
2024/01/26 03:26:07;;;;;;;9.83;7.30;;;;;;;;;;5108503;28;20756;-75
2024/01/26 03:28:32;;;;;;;7.53;6.32;;;;;;;;;;5108015;28;20274;-75
2024/01/26 03:30:57;;;;;;;8.97;7.37;;;;;;;;;;5108743;28;20028;-74
2024/01/26 03:33:23;;;;;;;9.93;6.73;;;;;;;;;;5113647;28;20088;-75
2024/01/26 03:35:48;;;;;;;9.57;6.47;;;;;;;;;;5114961;28;20030;-74
2024/01/26 03:38:13;;;;;;;10.73;6.73;;;;;;;;;;5115615;28;20281;-74
2024/01/26 03:40:38;;;;;;;10.63;6.63;;;;;;;;;;5104797;28;20016;-74
2024/01/26 03:43:03;;;;;;;11.63;7.23;;;;;;;;;;5109834;28;20280;-74
2024/01/26 03:45:28;;;;;;;9.10;6.60;;;;;;;;;;5108212;28;20020;-74
2024/01/26 03:47:54;;;;;;;12.10;7.37;;;;;;;;;;5113142;28;20046;-74
2024/01/26 03:50:19;;;;;;;9.63;7.17;;;;;;;;;;5104428;28;20031;-74
2024/01/26 03:52:45;;;;;;;11.20;7.63;;;;;;;;;;5103822;28;20106;-74
2024/01/26 03:55:11;;;;;;;9.52;6.95;;;;;;;;;;5103972;27;20027;-74
2024/01/26 03:57:37;;;;;;;11.32;7.82;;;;;;;;;;5106473;28;20054;-74
2024/01/26 04:00:04;;;;;;;11.88;8.05;;;;;;;;;;5103568;28;20086;-75
2024/01/26 04:02:29;;;;;;;19.75;8.68;;;;;;;;;;5105275;28;20379;-74
2024/01/26 04:04:54;;;;;;;17.92;9.18;;;;;;;;;;5105172;28;20041;-74
2024/01/26 04:07:19;;;;;;;12.97;8.27;;;;;;;;;;5110512;28;20051;-74
2024/01/26 04:09:44;;;;;;;13.43;8.40;;;;;;;;;;5112740;28;20528;-77
2024/01/26 04:12:09;;;;;;;11.53;8.70;;;;;;;;;;5113022;28;20027;-76
2024/01/26 04:14:35;;;;;;;12.07;8.60;;;;;;;;;;5110206;28;20802;-77
2024/01/26 04:17:00;;;;;;;11.60;9.03;;;;;;;;;;5107025;28;20896;-77
2024/01/26 04:19:25;;;;;;;13.43;9.57;;;;;;;;;;5108545;28;20286;-77
2024/01/26 04:21:51;;;;;;;13.73;9.47;;;;;;;;;;5107120;28;20232;-77
2024/01/26 04:24:17;;;;;;;14.23;9.45;;;;;;;;;;5105801;28;20399;-77
2024/01/26 04:26:42;;;;;;;16.77;10.05;;;;;;;;;;5105980;28;20043;-77
2024/01/26 04:29:07;;;;;;;17.97;9.67;;;;;;;;;;5109453;28;20026;-77
2024/01/26 04:31:33;;;;;;;14.63;9.73;;;;;;;;;;5105359;28;20114;-77
2024/01/26 04:33:58;;;;;;;12.88;9.57;;;;;;;;;;5110967;28;20030;-77
2024/01/26 04:36:23;;;;;;;16.33;10.37;;;;;;;;;;5107431;28;20020;-77
2024/01/26 04:38:48;;;;;;;14.53;10.00;;;;;;;;;;5104196;28;20562;-77
2024/01/26 04:41:14;;;;;;;11.93;9.23;;;;;;;;;;5107859;28;20280;-77
2024/01/26 04:43:40;;;;;;;13.63;10.05;;;;;;;;;;5107013;28;20289;-77
2024/01/26 04:46:05;;;;;;;16.13;10.32;;;;;;;;;;5112551;28;20024;-77
2024/01/26 04:48:30;;;;;;;12.80;9.83;;;;;;;;;;5111670;28;20024;-77
2024/01/26 04:50:56;;;;;;;14.50;9.63;;;;;;;;;;5104469;28;20110;-77
2024/01/26 04:53:21;;;;;;;15.98;10.27;;;;;;;;;;5113285;28;20031;-77
2024/01/26 04:55:46;;;;;;;14.60;9.80;;;;;;;;;;5104214;28;20444;-74
2024/01/26 04:58:12;;;;;;;11.77;9.80;;;;;;;;;;5111978;28;20026;-74
2024/01/26 05:00:37;;;;;;;17.57;10.57;;;;;;;;;;5104845;28;20020;-74
2024/01/26 05:03:02;;;;;;;13.50;9.57;;;;;;;;;;5111111;28;20270;-74
2024/01/26 05:05:28;;;;;;;15.50;10.30;;;;;;;;;;5105795;28;20055;-74
2024/01/26 05:07:53;;;;;;;14.65;10.30;;;;;;;;;;5107963;28;20114;-74
2024/01/26 05:10:18;;;;;;;14.05;10.27;;;;;;;;;;5109504;28;20015;-74
2024/01/26 05:12:44;;;;;;;12.82;9.68;;;;;;;;;;5106103;28;20028;-74
2024/01/26 05:15:09;;;;;;;14.05;10.35;;;;;;;;;;5106698;28;20027;-75
2024/01/26 05:17:35;;;;;;;13.13;9.75;;;;;;;;;;5108486;28;20388;-74
2024/01/26 05:20:00;;;;;;;14.80;9.50;;;;;;;;;;5100698;28;20016;-74
2024/01/26 05:22:25;;;;;;;12.67;9.27;;;;;;;;;;5110961;28;20032;-74
2024/01/26 05:24:50;;;;;;;15.77;9.53;;;;;;;;;;5109965;28;20266;-74
2024/01/26 05:27:15;;;;;;;14.93;9.57;;;;;;;;;;5111294;28;20338;-74
2024/01/26 05:29:41;;;;;;;13.47;10.17;;;;;;;;;;5109535;28;20023;-74
2024/01/26 05:32:06;;;;;;;13.17;10.27;;;;;;;;;;5111088;28;20089;-74
2024/01/26 05:34:31;;;;;;;18.20;10.23;;;;;;;;;;5108150;28;20106;-74
2024/01/26 05:36:56;;;;;;;18.60;10.93;;;;;;;;;;5104186;28;20024;-75
2024/01/26 05:39:21;;;;;;;18.10;10.97;;;;;;;;;;5111708;28;20352;-75
2024/01/26 05:41:47;;;;;;;14.03;10.07;;;;;;;;;;5104955;28;20520;-75
2024/01/26 05:44:12;;;;;;;16.67;10.85;;;;;;;;;;5110248;28;20269;-74
2024/01/26 05:46:37;;;;;;;16.73;10.98;;;;;;;;;;5106676;28;20015;-75
2024/01/26 05:49:02;;;;;;;14.38;10.63;;;;;;;;;;5103177;28;20023;-74
2024/01/26 05:51:28;;;;;;;15.82;10.93;;;;;;;;;;5107533;28;20069;-75
2024/01/26 05:53:53;;;;;;;19.20;12.00;;;;;;;;;;5102865;28;20024;-74
2024/01/26 05:56:18;;;;;;;16.52;12.18;;;;;;;;;;5107097;28;20481;-74
2024/01/26 05:58:44;;;;;;;18.95;11.75;;;;;;;;;;5110229;28;20169;-75
2024/01/26 06:01:09;;;;;;;19.23;12.23;;;;;;;;;;5102891;28;20028;-75
2024/01/26 06:03:34;;;;;;;19.85;11.95;;;;;;;;;;5105118;28;20008;-75
2024/01/26 06:05:59;;;;;;;23.13;12.97;;;;;;;;;;5105909;28;20110;-74
2024/01/26 06:08:24;;;;;;;22.83;12.37;;;;;;;;;;5111285;28;20270;-75
2024/01/26 06:10:51;;;;;;;19.37;12.60;;;;;;;;;;5105514;28;20027;-75
2024/01/26 06:13:17;;;;;;;24.30;14.27;;;;;;;;;;5106667;28;20278;-77
2024/01/26 06:15:42;;;;;;;23.90;13.77;;;;;;;;;;5103763;28;20026;-77
2024/01/26 06:18:07;;;;;;;21.35;13.43;;;;;;;;;;5104078;28;20273;-77
2024/01/26 06:20:32;;;;;;;25.20;14.40;;;;;;;;;;5106574;28;20027;-75
2024/01/26 06:22:58;;;;;;;22.88;14.18;;;;;;;;;;5104465;28;20361;-75
2024/01/26 06:25:23;;;;;;;25.58;14.20;;;;;;;;;;5103652;28;20027;-75
2024/01/26 06:27:48;;;;;;;22.20;13.60;;;;;;;;;;5111678;28;20016;-75
2024/01/26 06:30:14;;;;;;;24.27;14.33;;;;;;;;;;5102988;28;20012;-75
2024/01/26 06:32:42;;;;;;;24.00;14.50;;;;;;;;;;5110429;28;20035;-75
2024/01/26 06:35:07;;;;;;;22.73;13.90;;;;;;;;;;5103387;28;20012;-75
2024/01/26 06:37:32;;;;;;;24.80;14.30;;;;;;;;;;5110098;28;20027;-75
2024/01/26 06:39:58;;;;;;;24.63;14.00;;;;;;;;;;5104704;28;20023;-75
2024/01/26 06:42:25;;;;;;;24.80;14.40;;;;;;;;;;5107569;28;20416;-75
2024/01/26 06:44:52;;;;;;;20.80;14.05;;;;;;;;;;5105176;27;20111;-75
2024/01/26 06:47:17;;;;;;;21.58;13.30;;;;;;;;;;5112598;28;20397;-75
2024/01/26 06:49:42;;;;;;;23.77;13.97;;;;;;;;;;5115884;28;20024;-76
2024/01/26 06:52:08;;;;;;;26.30;14.07;;;;;;;;;;5109537;28;20027;-75
2024/01/26 06:54:33;;;;;;;24.03;14.10;;;;;;;;;;5112697;28;20797;-75
2024/01/26 06:56:58;;;;;;;25.23;14.53;;;;;;;;;;5108556;28;20045;-75
2024/01/26 06:59:23;;;;;;;24.13;14.43;;;;;;;;;;5104668;28;20284;-75
2024/01/26 07:01:48;;;;;;;25.43;14.30;;;;;;;;;;5107456;28;20034;-75
2024/01/26 07:04:14;;;;;;;26.70;14.50;;;;;;;;;;5101166;28;20268;-75
2024/01/26 07:06:39;;;;;;;22.35;13.93;;;;;;;;;;5107620;28;20019;-75
2024/01/26 07:09:04;;;;;;;23.50;14.30;;;;;;;;;;5109574;28;20451;-75
2024/01/26 07:11:29;;;;;;;20.67;13.13;;;;;;;;;;5107306;28;20323;-75
2024/01/26 07:13:54;;;;;;;25.03;14.70;;;;;;;;;;5107391;28;20620;-75
2024/01/26 07:16:19;;;;;;;28.40;14.90;;;;;;;;;;5102364;28;20031;-75
2024/01/26 07:18:45;;;;;;;23.63;14.18;;;;;;;;;;5106578;28;20518;-77
2024/01/26 07:21:10;;;;;;;27.77;14.43;;;;;;;;;;5106594;28;20011;-77
2024/01/26 07:23:38;;;;;;;22.02;13.52;;;;;;;;;;5106795;28;20027;-77
2024/01/26 07:26:03;;;;;;;21.45;12.93;;;;;;;;;;5106259;28;20099;-75
2024/01/26 07:28:28;;;;;;;20.92;14.15;;;;;;;;;;5106137;28;20573;-75
2024/01/26 07:30:54;;;;;;;25.77;14.43;;;;;;;;;;5106649;28;20413;-75
2024/01/26 07:33:19;;;;;;;25.37;14.67;;;;;;;;;;5111297;28;20391;-75
2024/01/26 07:35:44;;;;;;;23.83;14.70;;;;;;;;;;5107775;28;20027;-75
2024/01/26 07:38:09;;;;;;;23.43;14.73;;;;;;;;;;5113637;28;20016;-75
2024/01/26 07:40:34;;;;;;;23.47;13.97;;;;;;;;;;5102976;28;20028;-75
2024/01/26 07:42:59;;;;;;;25.13;14.43;;;;;;;;;;5114288;28;20264;-75
2024/01/26 07:45:25;;;;;;;26.03;14.53;;;;;;;;;;5110500;28;20289;-75
2024/01/26 07:47:52;;;;;;;21.75;16.25;;;;;;;;;;5111250;28;20292;-75
2024/01/26 07:50:17;;;;;;;25.55;15.90;;;;;;;;;;5109935;28;20023;-75
2024/01/26 07:52:42;;;;;;;27.90;16.83;;;;;;;;;;5112538;28;20379;-75
2024/01/26 07:55:09;;;;;;;26.90;16.08;;;;;;;;;;5108881;28;20038;-75
2024/01/26 07:57:34;;;;;;;26.23;15.88;;;;;;;;;;5114411;28;20099;-75
2024/01/26 07:59:59;;;;;;;25.92;16.45;;;;;;;;;;5104858;28;20085;-75
2024/01/26 08:02:25;;;;;;;29.90;17.40;;;;;;;;;;5104243;28;20035;-75
2024/01/26 08:04:50;;;;;;;23.37;16.87;;;;;;;;;;5107415;28;20700;-75
2024/01/26 08:07:15;;;;;;;25.75;16.00;;;;;;;;;;5107853;28;20046;-76
2024/01/26 08:09:41;;;;;;;23.90;15.30;;;;;;;;;;5105743;28;20474;-76
2024/01/26 08:12:06;;;;;;;28.02;15.70;;;;;;;;;;5110499;28;20046;-76
2024/01/26 08:14:31;;;;;;;23.87;14.57;;;;;;;;;;5108952;28;20024;-76
2024/01/26 08:16:56;;;;;;;22.63;14.80;;;;;;;;;;5112520;28;20799;-76
2024/01/26 08:19:22;;;;;;;23.03;15.30;;;;;;;;;;5110719;28;20099;-76
2024/01/26 08:21:47;;;;;;;25.73;14.90;;;;;;;;;;5105712;28;20268;-76
2024/01/26 08:24:12;;;;;;;23.57;14.63;;;;;;;;;;5106026;28;20024;-78
2024/01/26 08:26:37;;;;;;;27.90;14.40;;;;;;;;;;5104629;28;20270;-78
2024/01/26 08:29:02;;;;;;;22.73;13.82;;;;;;;;;;5109141;28;20091;-78
2024/01/26 08:31:29;;;;;;;23.43;14.27;;;;;;;;;;5111075;28;20386;-78
2024/01/26 08:33:54;;;;;;;78.60;18.15;;;;;;;;;;5108581;27;20019;-75
2024/01/26 08:36:19;;;;;;;23.13;14.30;;;;;;;;;;5111467;28;20031;-75
2024/01/26 08:38:45;;;;;;;20.67;13.47;;;;;;;;;;5107702;28;20048;-76
2024/01/26 08:41:10;;;;;;;18.88;12.43;;;;;;;;;;5109872;28;20280;-76
2024/01/26 08:43:35;;;;;;;21.50;12.35;;;;;;;;;;5109896;28;20026;-75
2024/01/26 08:46:01;;;;;;;19.50;11.18;;;;;;;;;;5112975;28;20034;-76
2024/01/26 08:48:26;;;;;;;20.65;13.32;;;;;;;;;;5112709;28;20051;-75
2024/01/26 08:50:51;;;;;;;25.42;16.33;;;;;;;;;;5108684;28;20028;-76
2024/01/26 08:53:16;;;;;;;22.13;14.90;;;;;;;;;;5112906;28;20035;-75
2024/01/26 08:55:41;;;;;;;21.33;13.73;;;;;;;;;;5108858;28;20020;-75
2024/01/26 08:58:07;;;;;;;20.50;13.73;;;;;;;;;;5103383;28;20367;-76
2024/01/26 09:00:32;;;;;;;21.35;14.48;;;;;;;;;;5108272;28;20032;-75
2024/01/26 09:02:57;;;;;;;21.60;15.05;;;;;;;;;;5107233;28;20031;-75
2024/01/26 09:05:22;;;;;;;23.00;14.97;;;;;;;;;;5109723;28;20015;-76
2024/01/26 09:07:48;;;;;;;22.93;14.80;;;;;;;;;;5101884;28;20749;-75
2024/01/26 09:10:13;;;;;;;21.00;14.17;;;;;;;;;;5106304;28;20315;-75
2024/01/26 09:12:39;;;;;;;23.95;13.68;;;;;;;;;;5106812;28;20028;-75
2024/01/26 09:15:04;;;;;;;22.33;15.07;;;;;;;;;;5105328;28;20106;-74
2024/01/26 09:17:29;;;;;;;20.00;12.88;;;;;;;;;;5111808;28;20035;-75
2024/01/26 09:19:54;;;;;;;18.67;12.30;;;;;;;;;;5105011;28;20023;-75
2024/01/26 09:22:19;;;;;;;14.17;9.33;;;;;;;;;;5113059;28;20034;-75
2024/01/26 09:24:45;;;;;;;12.23;8.57;;;;;;;;;;5105970;28;20046;-75
2024/01/26 09:27:10;;;;;;;11.97;5.40;;;;;;;;;;5107415;28;20282;-74
2024/01/26 09:29:35;;;;;;;10.82;6.05;;;;;;;;;;5110974;28;20296;-74
2024/01/26 09:32:01;;;;;;;9.35;5.07;;;;;;;;;;5105216;28;20497;-74
2024/01/26 09:34:26;;;;;;;10.33;4.53;;;;;;;;;;5109476;28;20072;-74
2024/01/26 09:36:52;;;;;;;9.55;4.50;;;;;;;;;;5103821;28;20524;-75
2024/01/26 09:39:17;;;;;;;8.60;4.27;;;;;;;;;;5103641;28;20161;-75
2024/01/26 09:41:42;;;;;;;10.40;4.28;;;;;;;;;;5103324;28;20019;-75
2024/01/26 09:44:07;;;;;;;9.77;4.03;;;;;;;;;;5110324;28;20475;-74
2024/01/26 09:46:33;;;;;;;12.02;4.68;;;;;;;;;;5111505;28;20495;-75
2024/01/26 09:48:59;;;;;;;11.73;3.60;;;;;;;;;;5103546;28;20042;-75
2024/01/26 09:51:27;;;;;;;16.27;4.13;;;;;;;;;;5106387;28;20015;-74
2024/01/26 09:53:54;;;;;;;18.17;4.10;;;;;;;;;;5106170;28;20584;-75
2024/01/26 09:56:21;;;;;;;10.80;2.88;;;;;;;;;;5107253;28;20051;-75
2024/01/26 09:58:46;;;;;;;16.23;2.80;;;;;;;;;;5108010;28;20047;-75
2024/01/26 10:01:13;;;;;;;8.57;2.70;;;;;;;;;;5106084;28;20077;-75
2024/01/26 10:03:38;;;;;;;14.32;3.28;;;;;;;;;;5104216;28;20361;-75
2024/01/26 10:06:03;;;;;;;10.55;2.05;;;;;;;;;;5103659;28;20047;-75
2024/01/26 10:08:38;;;;;;;14.05;2.90;;;;;;;;;;5103614;28;20046;-75
2024/01/26 10:11:03;;;;;;;11.73;1.92;;;;;;;;;;5101719;28;20012;-75
2024/01/26 10:13:29;;;;;;;10.25;2.63;;;;;;;;;;5107788;28;20022;-78
2024/01/26 10:16:02;;;;;;;9.77;2.37;;;;;;;;;;5106533;28;20043;-77
2024/01/26 10:18:36;;;;;;;12.13;2.78;;;;;;;;;;5111116;28;20026;-78
2024/01/26 10:21:02;;;;;;;13.52;2.88;;;;;;;;;;5110139;27;20019;-78
2024/01/26 10:23:27;;;;;;;23.25;3.83;;;;;;;;;;5109824;28;20072;-75
2024/01/26 10:25:52;;;;;;;19.83;3.10;;;;;;;;;;5109342;28;20106;-75
2024/01/26 10:28:17;;;;;;;16.90;3.27;;;;;;;;;;5109602;28;20020;-75
2024/01/26 10:30:43;;;;;;;15.80;2.88;;;;;;;;;;5110228;28;20269;-75
2024/01/26 10:33:09;;;;;;;12.55;2.63;;;;;;;;;;5112595;27;20420;-75
2024/01/26 10:35:35;;;;;;;16.60;2.78;;;;;;;;;;5109989;28;20098;-77
2024/01/26 10:38:01;;;;;;;11.38;2.63;;;;;;;;;;5118111;27;20482;-77
2024/01/26 10:40:27;;;;;;;22.50;2.78;;;;;;;;;;5115012;27;20032;-77
2024/01/26 10:42:53;;;;;;;16.88;2.88;;;;;;;;;;5111204;27;20027;-77
2024/01/26 10:45:19;;;;;;;14.82;2.78;;;;;;;;;;5109035;27;20140;-77
2024/01/26 10:47:44;;;;;;;20.13;4.30;;;;;;;;;;5107628;28;20512;-77
2024/01/26 10:50:10;;;;;;;13.57;2.88;;;;;;;;;;5114235;27;20352;-77
2024/01/26 10:52:37;;;;;;;15.18;3.13;;;;;;;;;;5107351;28;20047;-77
2024/01/26 10:55:03;;;;;;;14.55;2.58;;;;;;;;;;5114919;28;20034;-77
2024/01/26 10:57:29;;;;;;;13.07;2.35;;;;;;;;;;5111118;27;20431;-77
2024/01/26 10:59:54;;;;;;;17.65;3.40;;;;;;;;;;5113329;28;20028;-77
2024/01/26 11:02:33;;;;;;;14.43;2.93;;;;;;;;;;5109922;28;20065;-77
2024/01/26 11:05:07;;;;;;;11.55;2.70;;;;;;;;;;5112233;28;20375;-77
2024/01/26 11:07:39;;;;;;;11.60;2.28;;;;;;;;;;5112024;28;20074;-77
2024/01/26 11:10:06;;;;;;;12.65;2.30;;;;;;;;;;5106053;28;20019;-77
2024/01/26 11:12:33;;;;;;;11.32;1.95;;;;;;;;;;5116795;27;20058;-77
2024/01/26 11:15:05;;;;;;;8.32;1.77;;;;;;;;;;5111263;27;20016;-75
2024/01/26 11:17:40;;;;;;;8.70;1.73;;;;;;;;;;5116669;28;20047;-74
2024/01/26 11:20:10;;;;;;;7.50;1.60;;;;;;;;;;5114576;27;20026;-76
2024/01/26 11:22:35;;;;;;;8.43;1.88;;;;;;;;;;5113543;27;20085;-76
2024/01/26 11:25:00;;;;;;;7.68;1.73;;;;;;;;;;5113771;28;20538;-75
2024/01/26 11:27:26;;;;;;;9.75;2.03;;;;;;;;;;5116936;28;20027;-76
2024/01/26 11:29:51;;;;;;;8.50;1.80;;;;;;;;;;5106114;28;20020;-75
2024/01/26 11:32:17;;;;;;;7.03;1.63;;;;;;;;;;5110664;28;20471;-78
2024/01/26 11:34:43;;;;;;;6.75;1.90;;;;;;;;;;5103973;28;20038;-77
2024/01/26 11:37:10;;;;;;;10.50;1.88;;;;;;;;;;5109538;28;20051;-76
2024/01/26 11:39:36;;;;;;;5.63;1.30;;;;;;;;;;5103980;28;20097;-75
2024/01/26 11:42:06;;;;;;;9.82;1.83;;;;;;;;;;5102234;28;20039;-74
2024/01/26 11:44:33;;;;;;;11.10;1.90;;;;;;;;;;5110450;28;20016;-75
2024/01/26 11:46:58;;;;;;;7.13;1.65;;;;;;;;;;5107404;28;20028;-75
2024/01/26 11:49:23;;;;;;;8.17;1.50;;;;;;;;;;5112219;28;20014;-74
2024/01/26 11:51:48;;;;;;;10.27;1.87;;;;;;;;;;5105828;28;20036;-75
2024/01/26 11:54:14;;;;;;;6.05;1.83;;;;;;;;;;5104946;28;20019;-75
2024/01/26 11:56:40;;;;;;;7.38;1.90;;;;;;;;;;5106400;28;20035;-75
2024/01/26 11:59:06;;;;;;;6.78;1.70;;;;;;;;;;5103966;28;20040;-75
2024/01/26 12:01:31;;;;;;;11.27;2.40;;;;;;;;;;5109410;28;20352;-75
2024/01/26 12:03:57;;;;;;;9.10;1.63;;;;;;;;;;5105780;28;20038;-76
2024/01/26 12:06:22;;;;;;;7.37;1.83;;;;;;;;;;5109809;28;20284;-76
2024/01/26 12:08:47;;;;;;;7.10;1.60;;;;;;;;;;5112959;28;20279;-75
2024/01/26 12:11:12;;;;;;;7.13;1.90;;;;;;;;;;5106965;28;20277;-75
2024/01/26 12:13:38;;;;;;;6.47;1.95;;;;;;;;;;5110521;28;20281;-75
2024/01/26 12:16:04;;;;;;;10.25;1.73;;;;;;;;;;5105634;28;20016;-75
2024/01/26 12:18:29;;;;;;;7.68;2.00;;;;;;;;;;5113540;28;20035;-75
2024/01/26 12:20:56;;;;;;;8.73;2.00;;;;;;;;;;5107501;28;20478;-75
2024/01/26 12:23:21;;;;;;;9.15;2.15;;;;;;;;;;5105306;28;20028;-75
2024/01/26 12:25:50;;;;;;;12.93;2.37;;;;;;;;;;5108146;28;20063;-75
2024/01/26 12:28:16;;;;;;;10.55;1.95;;;;;;;;;;5101847;28;20274;-76
2024/01/26 12:30:45;;;;;;;8.15;2.15;;;;;;;;;;5105276;28;20026;-76
2024/01/26 12:33:10;;;;;;;9.45;2.63;;;;;;;;;;5106735;28;20383;-75
2024/01/26 12:35:40;;;;;;;11.38;2.08;;;;;;;;;;5106117;28;20020;-75
2024/01/26 12:38:05;;;;;;;14.45;2.40;;;;;;;;;;5105619;28;20016;-75
2024/01/26 12:40:30;;;;;;;12.23;2.25;;;;;;;;;;5108125;28;20095;-75
2024/01/26 12:42:55;;;;;;;16.90;2.20;;;;;;;;;;5105052;28;20020;-75
2024/01/26 12:45:21;;;;;;;9.68;2.30;;;;;;;;;;5104871;28;20771;-75
2024/01/26 12:47:46;;;;;;;10.10;1.97;;;;;;;;;;5103514;28;20515;-75
2024/01/26 12:50:11;;;;;;;11.07;2.30;;;;;;;;;;5108999;28;20070;-75
2024/01/26 12:52:36;;;;;;;11.93;2.20;;;;;;;;;;5101274;28;20432;-76
2024/01/26 12:55:01;;;;;;;10.40;2.10;;;;;;;;;;5098495;28;20016;-75
2024/01/26 12:57:28;;;;;;;8.40;2.38;;;;;;;;;;5107726;28;20323;-75
2024/01/26 12:59:54;;;;;;;10.45;2.17;;;;;;;;;;5113505;28;20043;-76
2024/01/26 13:02:19;;;;;;;8.47;2.10;;;;;;;;;;5113859;28;20023;-75
2024/01/26 13:04:49;;;;;;;7.70;2.20;;;;;;;;;;5106987;28;20091;-75
2024/01/26 13:07:14;;;;;;;9.88;2.38;;;;;;;;;;5109876;28;20258;-75
2024/01/26 13:09:39;;;;;;;12.57;2.30;;;;;;;;;;5104128;28;20410;-75
2024/01/26 13:12:05;;;;;;;9.23;2.23;;;;;;;;;;5110613;28;20049;-73
2024/01/26 13:14:30;;;;;;;9.30;2.85;;;;;;;;;;5103504;28;20016;-74
2024/01/26 13:16:55;;;;;;;14.37;3.80;;;;;;;;;;5107884;28;20076;-74
2024/01/26 13:19:21;;;;;;;12.07;2.83;;;;;;;;;;5104213;28;20390;-74
2024/01/26 13:21:48;;;;;;;12.40;2.30;;;;;;;;;;5106676;28;20448;-74
2024/01/26 13:24:13;;;;;;;8.32;2.17;;;;;;;;;;5104315;28;20326;-79
2024/01/26 13:26:39;;;;;;;9.10;2.13;;;;;;;;;;5103924;28;20401;-75
2024/01/26 13:29:05;;;;;;;13.38;2.35;;;;;;;;;;5107119;28;20019;-75
2024/01/26 13:31:30;;;;;;;11.73;2.83;;;;;;;;;;5102624;28;20039;-75
2024/01/26 13:33:55;;;;;;;10.13;1.90;;;;;;;;;;5104541;28;20012;-75
2024/01/26 13:36:20;;;;;;;12.10;2.23;;;;;;;;;;5104491;28;20527;-75
2024/01/26 13:38:45;;;;;;;12.10;2.73;;;;;;;;;;5100797;28;20280;-74
2024/01/26 13:41:11;;;;;;;9.37;2.93;;;;;;;;;;5104481;28;20020;-75
2024/01/26 13:43:36;;;;;;;10.38;2.75;;;;;;;;;;5101838;28;20016;-74
2024/01/26 13:46:01;;;;;;;11.27;2.45;;;;;;;;;;5103622;28;20016;-75
2024/01/26 13:48:27;;;;;;;10.90;2.40;;;;;;;;;;5103050;28;20407;-75
2024/01/26 13:50:52;;;;;;;9.93;2.50;;;;;;;;;;5103157;28;20027;-75
2024/01/26 13:53:20;;;;;;;10.32;1.80;;;;;;;;;;5103183;28;20084;-75
2024/01/26 13:55:46;;;;;;;11.18;2.70;;;;;;;;;;5101385;28;20379;-75
2024/01/26 13:58:11;;;;;;;10.23;2.45;;;;;;;;;;5104298;28;20027;-76
2024/01/26 14:00:36;;;;;;;11.47;2.67;;;;;;;;;;5102975;28;20111;-75
2024/01/26 14:03:03;;;;;;;12.90;2.57;;;;;;;;;;5102176;28;20028;-75
2024/01/26 14:05:28;;;;;;;9.52;2.55;;;;;;;;;;5105677;28;20278;-74
2024/01/26 14:07:53;;;;;;;8.10;2.13;;;;;;;;;;5099617;28;20012;-75
2024/01/26 14:10:18;;;;;;;9.80;2.63;;;;;;;;;;5105824;28;20417;-74
2024/01/26 14:12:44;;;;;;;11.15;2.25;;;;;;;;;;5105685;28;20341;-74
2024/01/26 14:15:13;;;;;;;13.52;2.63;;;;;;;;;;5101143;28;20418;-74